Time;durP1;ratioP1;P1;durP2;ratioP2;P2;SDS_P1;SDS_P2;PMS_P1;PMS_P2;Temp;Humidity;BMP_temperature;BMP_pressure;BME280_temperature;BME280_humidity;BME280_pressure;Samples;Min_cycle;Max_cycle;Signal;HPM_P1;HPM_P2
2023/01/29 00:00:05;;;;;;;26.03;19.57;;;-0.50;99.90;;;;;;5094518;28;20555;-77
2023/01/29 00:02:34;;;;;;;27.13;20.93;;;-0.40;99.90;;;;;;5095399;28;20468;-75
2023/01/29 00:05:04;;;;;;;27.07;20.33;;;-0.50;99.90;;;;;;5094429;28;20544;-77
2023/01/29 00:07:52;;;;;;;26.90;20.27;;;-0.50;99.90;;;;;;5096306;28;20487;-76
2023/01/29 00:10:20;;;;;;;25.77;20.43;;;-0.50;99.90;;;;;;5093706;28;20492;-76
2023/01/29 00:12:50;;;;;;;26.20;20.50;;;-0.50;99.90;;;;;;5093534;28;20556;-76
2023/01/29 00:15:19;;;;;;;27.73;19.93;;;-0.40;99.90;;;;;;5093992;28;20548;-78
2023/01/29 00:17:47;;;;;;;23.27;19.30;;;-0.40;99.90;;;;;;5093608;28;20465;-75
2023/01/29 00:20:17;;;;;;;28.80;19.83;;;-0.40;99.90;;;;;;5093567;28;20471;-75
2023/01/29 00:22:46;;;;;;;27.63;20.27;;;-0.50;99.90;;;;;;5093113;28;20540;-78
2023/01/29 00:25:14;;;;;;;25.40;20.33;;;-0.40;99.90;;;;;;5093604;28;20441;-77
2023/01/29 00:27:43;;;;;;;28.10;20.33;;;-0.40;99.90;;;;;;5093217;28;20548;-76
2023/01/29 00:30:12;;;;;;;26.00;20.03;;;-0.40;99.90;;;;;;5093528;28;20482;-76
2023/01/29 00:32:41;;;;;;;26.23;20.97;;;-0.50;99.90;;;;;;5093208;28;20897;-76
2023/01/29 00:35:10;;;;;;;27.80;20.60;;;-0.50;99.90;;;;;;5093630;28;20984;-76
2023/01/29 00:37:39;;;;;;;28.60;20.53;;;-0.60;99.90;;;;;;5095578;28;20544;-77
2023/01/29 00:40:09;;;;;;;25.27;19.60;;;-0.50;99.90;;;;;;5093203;28;20451;-75
2023/01/29 00:45:23;;;;;;;23.60;18.80;;;-0.50;99.90;;;;;;5093412;28;20512;-76
2023/01/29 00:47:51;;;;;;;25.50;18.73;;;-0.50;99.90;;;;;;5092774;28;20556;-76
2023/01/29 00:50:20;;;;;;;24.43;18.87;;;-0.60;99.90;;;;;;5092309;28;21070;-76
2023/01/29 00:52:50;;;;;;;21.50;17.50;;;-0.50;99.90;;;;;;5092755;28;20480;-77
2023/01/29 00:55:18;;;;;;;21.70;15.93;;;-0.50;99.90;;;;;;5092785;28;20575;-78
2023/01/29 00:57:47;;;;;;;23.20;17.60;;;-0.50;99.90;;;;;;5113278;28;20300;-76
2023/01/29 01:00:18;;;;;;;23.50;16.93;;;-0.50;99.90;;;;;;5113438;28;20428;-76
2023/01/29 01:05:32;;;;;;;17.70;14.90;;;-0.50;99.90;;;;;;5112763;28;20464;-77
2023/01/29 01:08:01;;;;;;;19.17;15.43;;;-0.50;99.90;;;;;;5109246;28;22954;-76
2023/01/29 01:10:31;;;;;;;18.20;15.07;;;-0.50;99.90;;;;;;5111612;28;20448;-76
2023/01/29 01:13:01;;;;;;;15.60;13.23;;;-0.50;99.90;;;;;;5110391;28;20484;-78
2023/01/29 01:15:32;;;;;;;16.07;12.87;;;-0.50;99.90;;;;;;5095349;28;20479;-76
2023/01/29 01:18:02;;;;;;;15.73;12.93;;;-0.50;99.90;;;;;;5113476;28;20972;-75
2023/01/29 01:20:33;;;;;;;16.43;12.77;;;-0.50;99.90;;;;;;5116022;28;20455;-76
2023/01/29 01:23:02;;;;;;;16.30;13.17;;;-0.50;99.90;;;;;;5103454;28;20476;-75
2023/01/29 01:25:30;;;;;;;16.70;13.87;;;-0.50;99.90;;;;;;5104182;28;20453;-77
2023/01/29 01:27:59;;;;;;;16.23;12.80;;;-0.50;99.90;;;;;;5105158;28;20455;-76
2023/01/29 01:30:29;;;;;;;15.77;13.07;;;-0.40;99.90;;;;;;5087244;28;20958;-77
2023/01/29 01:32:58;;;;;;;15.33;12.50;;;-0.40;99.90;;;;;;5093791;28;20504;-77
2023/01/29 01:35:26;;;;;;;15.50;12.30;;;-0.40;99.90;;;;;;5102469;28;20233;-76
2023/01/29 01:37:54;;;;;;;18.00;13.03;;;-0.40;99.90;;;;;;5115534;28;20222;-77
2023/01/29 01:40:25;;;;;;;17.97;13.53;;;-0.40;99.90;;;;;;5093539;28;20471;-77
2023/01/29 01:42:55;;;;;;;15.53;12.43;;;-0.40;99.90;;;;;;5092746;28;20428;-76
2023/01/29 01:45:27;;;;;;;16.77;12.13;;;-0.50;99.90;;;;;;5092847;28;20452;-76
2023/01/29 01:47:59;;;;;;;15.77;11.97;;;-0.50;99.90;;;;;;5098115;28;20481;-75
2023/01/29 01:50:33;;;;;;;13.03;11.10;;;-0.50;99.90;;;;;;5112531;28;20226;-77
2023/01/29 01:53:07;;;;;;;16.33;12.23;;;-0.50;99.90;;;;;;5112308;28;20503;-77
2023/01/29 01:55:41;;;;;;;15.53;11.37;;;-0.50;99.90;;;;;;5112429;28;20452;-75
2023/01/29 01:58:14;;;;;;;14.90;11.33;;;-0.50;99.90;;;;;;5092375;28;20487;-76
2023/01/29 02:00:42;;;;;;;14.70;11.33;;;-0.40;99.90;;;;;;5091350;28;20517;-76
2023/01/29 02:11:39;;;;;;;14.37;11.10;;;-0.40;99.90;;;;;;5091902;28;20448;-77
2023/01/29 02:14:08;;;;;;;13.93;12.23;;;-0.50;99.90;;;;;;5091459;28;20203;-77
2023/01/29 02:16:36;;;;;;;13.77;11.43;;;-0.50;99.90;;;;;;5091333;28;20461;-77
2023/01/29 02:19:09;;;;;;;14.13;11.77;;;-0.50;99.90;;;;;;5091542;28;20544;-76
2023/01/29 02:21:57;;;;;;;14.17;11.70;;;-0.50;99.90;;;;;;5091750;28;20802;-76
2023/01/29 02:24:54;;;;;;;13.63;11.80;;;-0.40;99.90;;;;;;5108780;28;20471;-77
2023/01/29 02:27:33;;;;;;;15.07;11.10;;;-0.50;99.90;;;;;;5112210;28;20505;-76
2023/01/29 02:30:09;;;;;;;12.53;10.97;;;-0.50;99.90;;;;;;5112121;28;20428;-75
2023/01/29 02:32:53;;;;;;;12.83;10.07;;;-0.40;99.90;;;;;;5093156;28;20567;-75
2023/01/29 02:35:28;;;;;;;14.30;11.53;;;-0.40;99.90;;;;;;5092061;28;20428;-76
2023/01/29 02:38:07;;;;;;;12.60;11.07;;;-0.40;99.90;;;;;;5091922;28;20511;-77
2023/01/29 02:40:42;;;;;;;11.57;10.23;;;-0.40;99.90;;;;;;5091763;28;20460;-77
2023/01/29 02:43:23;;;;;;;12.90;10.33;;;-0.40;99.90;;;;;;5091593;28;20286;-75
2023/01/29 02:46:01;;;;;;;14.57;11.67;;;-0.40;99.90;;;;;;5091826;28;20535;-77
2023/01/29 02:48:39;;;;;;;13.27;10.80;;;-0.40;99.90;;;;;;5074183;28;20579;-78
2023/01/29 02:51:13;;;;;;;13.37;11.50;;;-0.40;99.90;;;;;;5091671;28;20202;-77
2023/01/29 02:53:50;;;;;;;13.20;11.23;;;-0.40;99.90;;;;;;5091650;28;20469;-78
2023/01/29 02:56:21;;;;;;;14.70;10.83;;;-0.50;99.90;;;;;;5092335;28;20429;-75
2023/01/29 02:58:54;;;;;;;13.00;10.57;;;-0.40;99.90;;;;;;5091264;28;20811;-77
2023/01/29 03:01:29;;;;;;;12.97;10.33;;;-0.50;99.90;;;;;;5091445;28;20460;-76
2023/01/29 03:04:02;;;;;;;10.80;9.23;;;-0.50;99.90;;;;;;5091210;28;20877;-77
2023/01/29 03:06:34;;;;;;;11.30;8.83;;;-0.40;99.90;;;;;;5091478;28;20479;-75
2023/01/29 03:09:07;;;;;;;9.37;8.30;;;-0.40;99.90;;;;;;5093975;28;20471;-76
2023/01/29 03:11:40;;;;;;;11.77;9.07;;;-0.40;99.90;;;;;;5091935;28;20435;-76
2023/01/29 03:14:13;;;;;;;11.07;9.13;;;-0.30;99.90;;;;;;5094942;28;20242;-76
2023/01/29 03:16:47;;;;;;;10.53;8.80;;;-0.40;99.90;;;;;;5094769;28;20211;-76
2023/01/29 03:19:20;;;;;;;10.27;8.63;;;-0.40;99.90;;;;;;5094792;28;20554;-74
2023/01/29 03:21:57;;;;;;;10.33;8.83;;;-0.30;99.90;;;;;;5094483;28;20551;-77
2023/01/29 03:33:04;;;;;;;12.97;9.57;;;-0.30;99.90;;;;;;5094769;28;20221;-76
2023/01/29 03:35:38;;;;;;;10.23;8.90;;;-0.30;99.90;;;;;;5093104;28;20464;-77
2023/01/29 03:38:08;;;;;;;11.37;9.00;;;-0.40;99.90;;;;;;5093883;28;20491;-76
2023/01/29 03:40:46;;;;;;;12.17;10.20;;;-0.40;99.90;;;;;;5093771;28;20552;-76
2023/01/29 03:43:26;;;;;;;10.97;9.50;;;-0.40;99.90;;;;;;5098334;28;20663;-76
2023/01/29 03:46:02;;;;;;;11.70;9.00;;;-0.30;99.90;;;;;;5114096;28;20738;-76
2023/01/29 03:48:36;;;;;;;12.30;10.07;;;-0.30;99.90;;;;;;5103489;28;20453;-76
2023/01/29 03:51:16;;;;;;;12.83;10.80;;;-0.40;99.90;;;;;;5094251;28;20811;-77
2023/01/29 03:53:49;;;;;;;11.33;10.13;;;-0.40;99.90;;;;;;5093867;28;20556;-75
2023/01/29 03:56:28;;;;;;;11.97;10.07;;;-0.30;99.90;;;;;;5094283;28;20449;-75
2023/01/29 03:59:00;;;;;;;9.80;7.83;;;-0.30;99.90;;;;;;5094128;28;20459;-78
2023/01/29 04:01:34;;;;;;;9.80;8.67;;;-0.30;99.90;;;;;;5093832;28;20464;-76
2023/01/29 04:04:10;;;;;;;9.67;8.33;;;-0.30;99.90;;;;;;5093631;28;20472;-76
2023/01/29 04:06:42;;;;;;;10.17;8.40;;;-0.40;99.90;;;;;;5093948;28;20910;-77
2023/01/29 04:09:15;;;;;;;10.50;9.27;;;-0.30;99.90;;;;;;5095307;28;20503;-77
2023/01/29 04:11:47;;;;;;;10.83;9.50;;;-0.30;99.90;;;;;;5106167;28;20527;-77
2023/01/29 04:14:16;;;;;;;12.60;10.63;;;-0.40;99.90;;;;;;5114059;28;20482;-78
2023/01/29 04:16:49;;;;;;;12.77;10.70;;;-0.40;99.90;;;;;;5105349;28;20465;-78
2023/01/29 04:19:19;;;;;;;12.67;11.30;;;-0.40;99.90;;;;;;5093985;28;20519;-77
2023/01/29 04:21:50;;;;;;;14.27;11.43;;;-0.40;99.90;;;;;;5093201;28;20216;-76
2023/01/29 04:24:18;;;;;;;13.00;11.60;;;-0.50;99.90;;;;;;5092357;28;20447;-75
2023/01/29 04:27:05;;;;;;;12.90;11.50;;;-0.50;99.90;;;;;;5108626;28;20227;-76
2023/01/29 04:29:47;;;;;;;13.67;12.17;;;-0.40;99.90;;;;;;5094869;28;20546;-76
2023/01/29 04:32:22;;;;;;;13.23;11.83;;;-0.40;99.90;;;;;;5093238;28;20453;-78
2023/01/29 04:35:06;;;;;;;13.13;11.70;;;-0.40;99.90;;;;;;5093308;28;20825;-75
2023/01/29 04:37:40;;;;;;;13.80;11.60;;;-0.30;99.90;;;;;;5075713;28;20472;-75
2023/01/29 04:40:21;;;;;;;13.67;12.13;;;-0.30;99.90;;;;;;5103343;28;20464;-75
2023/01/29 04:42:59;;;;;;;14.67;11.90;;;-0.40;99.90;;;;;;5113284;28;20448;-76
2023/01/29 04:45:35;;;;;;;14.03;12.07;;;-0.50;99.90;;;;;;5113510;28;20715;-75
2023/01/29 04:48:16;;;;;;;13.67;12.27;;;-0.40;99.90;;;;;;5104439;28;20518;-76
2023/01/29 04:50:53;;;;;;;15.50;12.80;;;-0.50;99.90;;;;;;5093227;28;20781;-77
2023/01/29 04:53:27;;;;;;;14.57;12.70;;;-0.50;99.90;;;;;;5092613;28;20483;-75
2023/01/29 04:56:01;;;;;;;14.50;12.93;;;-0.50;99.90;;;;;;5092977;28;20200;-75
2023/01/29 04:58:33;;;;;;;14.97;13.37;;;-0.40;99.90;;;;;;5092548;28;20889;-77
2023/01/29 05:01:04;;;;;;;15.60;13.67;;;-0.50;99.90;;;;;;5093363;28;20827;-76
2023/01/29 05:03:36;;;;;;;16.00;13.90;;;-0.40;99.90;;;;;;5092766;28;20203;-75
2023/01/29 05:06:08;;;;;;;15.77;13.60;;;-0.40;99.90;;;;;;5092685;28;20453;-77
2023/01/29 05:08:38;;;;;;;15.40;13.80;;;-0.40;99.90;;;;;;5092334;28;20487;-79
2023/01/29 05:11:07;;;;;;;15.73;14.03;;;-0.50;99.90;;;;;;5092975;28;20429;-76
2023/01/29 05:13:39;;;;;;;15.07;13.43;;;-0.50;99.90;;;;;;5091889;28;20481;-75
2023/01/29 05:16:12;;;;;;;14.87;13.30;;;-0.50;99.90;;;;;;5092313;28;20545;-75
2023/01/29 05:18:40;;;;;;;15.63;13.80;;;-0.60;99.90;;;;;;5092706;28;20209;-77
2023/01/29 05:21:10;;;;;;;15.10;13.50;;;-0.60;99.90;;;;;;5092551;28;20441;-77
2023/01/29 05:23:38;;;;;;;15.50;13.80;;;-0.60;99.90;;;;;;5091791;28;20465;-77
2023/01/29 05:26:07;;;;;;;17.30;15.43;;;-0.60;99.90;;;;;;5092696;28;20461;-77
2023/01/29 05:28:34;;;;;;;16.23;14.57;;;-0.60;99.90;;;;;;5094605;28;20448;-77
2023/01/29 05:31:02;;;;;;;17.60;15.70;;;-0.60;99.90;;;;;;5108104;27;20464;-78
2023/01/29 05:33:31;;;;;;;17.40;15.20;;;-0.60;99.90;;;;;;5092144;28;20794;-76
2023/01/29 05:36:00;;;;;;;16.70;14.77;;;-0.60;99.90;;;;;;5092227;28;20548;-76
2023/01/29 05:38:29;;;;;;;17.57;15.67;;;-0.50;99.90;;;;;;5092436;28;20469;-77
2023/01/29 05:40:59;;;;;;;17.80;15.73;;;-0.60;99.90;;;;;;5108493;28;20474;-78
2023/01/29 05:43:27;;;;;;;16.73;14.97;;;-0.60;99.90;;;;;;5112425;28;20471;-76
2023/01/29 05:45:56;;;;;;;17.47;15.57;;;-0.70;99.90;;;;;;5112377;28;20486;-76
2023/01/29 05:48:26;;;;;;;18.47;16.50;;;-0.60;99.90;;;;;;5100697;28;20826;-78
2023/01/29 05:50:54;;;;;;;19.27;15.83;;;-0.60;99.90;;;;;;5083797;28;20449;-76
2023/01/29 05:53:24;;;;;;;17.33;15.53;;;-0.60;99.90;;;;;;5091993;28;20484;-77
2023/01/29 05:55:56;;;;;;;18.30;16.30;;;-0.50;99.90;;;;;;5091936;28;20480;-76
2023/01/29 05:58:25;;;;;;;17.33;15.53;;;-0.50;99.90;;;;;;5092170;28;20430;-78
2023/01/29 06:00:53;;;;;;;17.27;15.47;;;-0.50;99.90;;;;;;5091910;28;20465;-78
2023/01/29 06:03:21;;;;;;;17.03;15.00;;;-0.50;99.90;;;;;;5091988;28;20441;-76
2023/01/29 06:05:49;;;;;;;16.73;14.90;;;-0.50;99.90;;;;;;5092080;28;20206;-77
2023/01/29 06:08:17;;;;;;;16.77;15.00;;;-0.50;99.90;;;;;;5091924;28;20567;-77
2023/01/29 06:10:45;;;;;;;16.30;14.60;;;-0.50;99.90;;;;;;5092004;28;20989;-76
2023/01/29 06:13:15;;;;;;;14.97;13.40;;;-0.50;99.90;;;;;;5091497;28;20449;-77
2023/01/29 06:15:45;;;;;;;13.80;12.40;;;-0.60;99.90;;;;;;5091597;28;20238;-76
2023/01/29 06:18:14;;;;;;;14.03;12.63;;;-0.60;99.90;;;;;;5111801;28;20458;-77
2023/01/29 06:20:42;;;;;;;13.77;12.37;;;-0.50;99.90;;;;;;5111917;28;20857;-78
2023/01/29 06:23:10;;;;;;;14.13;12.63;;;-0.60;99.90;;;;;;5111562;28;20882;-76
2023/01/29 06:25:38;;;;;;;13.87;12.47;;;-0.50;99.90;;;;;;5097656;28;20457;-78
2023/01/29 06:28:06;;;;;;;14.10;12.70;;;-0.50;99.90;;;;;;5098216;28;20456;-76
2023/01/29 06:30:35;;;;;;;14.83;13.33;;;-0.50;99.90;;;;;;5111934;28;20463;-77
2023/01/29 06:33:03;;;;;;;14.03;12.63;;;-0.50;99.90;;;;;;5111210;28;20807;-78
2023/01/29 06:35:31;;;;;;;12.63;11.33;;;-0.50;99.90;;;;;;5096949;28;20487;-77
2023/01/29 06:38:00;;;;;;;12.77;11.53;;;-0.50;99.90;;;;;;5091667;28;20900;-76
2023/01/29 06:40:28;;;;;;;11.57;10.37;;;-0.60;99.90;;;;;;5103692;28;20551;-77
2023/01/29 06:42:56;;;;;;;12.80;11.50;;;-0.60;99.90;;;;;;5111699;28;20459;-77
2023/01/29 06:45:24;;;;;;;13.50;12.10;;;-0.60;99.90;;;;;;5112084;28;20463;-78
2023/01/29 06:47:54;;;;;;;14.80;13.30;;;-0.60;99.90;;;;;;5114375;28;20475;-77
2023/01/29 06:50:22;;;;;;;14.60;13.10;;;-0.50;99.90;;;;;;5109211;28;20815;-76
2023/01/29 06:52:50;;;;;;;14.93;13.40;;;-0.50;99.90;;;;;;5115338;28;20540;-78
2023/01/29 06:55:18;;;;;;;15.07;13.47;;;-0.50;99.90;;;;;;5115455;28;20270;-77
2023/01/29 06:57:46;;;;;;;16.77;15.03;;;-0.50;99.90;;;;;;5115739;28;20444;-78
2023/01/29 07:00:15;;;;;;;15.97;14.27;;;-0.50;99.90;;;;;;5100089;28;20464;-77
2023/01/29 07:02:49;;;;;;;17.00;13.77;;;-0.50;99.90;;;;;;5094674;28;21026;-77
2023/01/29 07:05:18;;;;;;;14.60;13.10;;;-0.50;99.90;;;;;;5095506;28;20516;-77
2023/01/29 07:07:47;;;;;;;14.53;13.03;;;-0.50;99.90;;;;;;5095237;28;20531;-77
2023/01/29 07:10:15;;;;;;;15.13;13.63;;;-0.60;99.90;;;;;;5096014;28;20211;-77
2023/01/29 07:12:44;;;;;;;14.20;12.70;;;-0.60;99.90;;;;;;5111516;28;20452;-77
2023/01/29 07:15:12;;;;;;;14.67;13.17;;;-0.60;99.90;;;;;;5115437;28;20509;-77
2023/01/29 07:17:40;;;;;;;14.53;13.03;;;-0.50;99.90;;;;;;5114083;28;20828;-77
2023/01/29 07:20:10;;;;;;;14.33;12.83;;;-0.50;99.90;;;;;;5115686;28;20547;-77
2023/01/29 07:22:39;;;;;;;15.17;12.87;;;-0.50;99.90;;;;;;5114700;28;20559;-76
2023/01/29 07:25:09;;;;;;;13.20;11.80;;;-0.50;99.90;;;;;;5104974;28;20810;-77
2023/01/29 07:27:37;;;;;;;13.67;12.27;;;-0.40;99.90;;;;;;5109099;28;20214;-77
2023/01/29 07:30:06;;;;;;;14.33;12.83;;;-0.40;99.90;;;;;;5116139;28;20448;-77
2023/01/29 07:32:34;;;;;;;14.87;13.37;;;-0.40;99.90;;;;;;5114463;28;20532;-78
2023/01/29 07:35:03;;;;;;;13.70;12.30;;;-0.30;99.90;;;;;;5102131;28;20844;-78
2023/01/29 07:37:32;;;;;;;12.73;10.60;;;-0.30;99.90;;;;;;5097509;28;20202;-76
2023/01/29 07:40:03;;;;;;;13.40;12.00;;;-0.30;99.90;;;;;;5108378;28;20464;-77
2023/01/29 07:42:31;;;;;;;13.97;12.47;;;-0.20;99.90;;;;;;5108605;28;20429;-77
2023/01/29 07:45:00;;;;;;;16.33;13.20;;;-0.10;99.90;;;;;;5106969;28;20445;-78
2023/01/29 07:47:28;;;;;;;16.53;14.83;;;-0.20;99.90;;;;;;5112705;28;20486;-77
2023/01/29 07:49:56;;;;;;;17.40;15.67;;;-0.20;99.90;;;;;;5098040;28;20468;-77
2023/01/29 07:52:25;;;;;;;17.93;16.03;;;-0.20;99.90;;;;;;5093856;28;20445;-77
2023/01/29 07:54:53;;;;;;;17.27;15.47;;;-0.20;99.90;;;;;;5094115;28;20633;-77
2023/01/29 07:57:23;;;;;;;19.83;16.37;;;-0.10;99.90;;;;;;5093947;28;20211;-76
2023/01/29 07:59:51;;;;;;;17.07;15.27;;;-0.10;99.90;;;;;;5093062;28;20438;-77
2023/01/29 08:02:19;;;;;;;18.63;16.73;;;-0.10;99.90;;;;;;5093373;28;20548;-76
2023/01/29 08:04:47;;;;;;;18.17;16.23;;;-0.10;99.90;;;;;;5105400;28;20869;-76
2023/01/29 08:07:15;;;;;;;18.00;16.10;;;-0.10;99.90;;;;;;5112682;28;20206;-77
2023/01/29 08:09:43;;;;;;;17.67;15.77;;;-0.10;99.90;;;;;;5114498;28;20546;-76
2023/01/29 08:12:14;;;;;;;16.80;15.00;;;-0.10;99.90;;;;;;5112528;28;20608;-76
2023/01/29 08:14:44;;;;;;;17.47;15.57;;;-0.10;99.90;;;;;;5110278;28;20456;-77
2023/01/29 08:17:13;;;;;;;17.60;15.70;;;-0.20;99.90;;;;;;5113489;28;20844;-76
2023/01/29 08:19:42;;;;;;;18.07;16.17;;;-0.20;99.90;;;;;;5114369;28;20448;-78
2023/01/29 08:22:10;;;;;;;18.07;16.17;;;-0.10;99.90;;;;;;5105114;28;20833;-76
2023/01/29 08:24:38;;;;;;;17.40;15.27;;;0.00;99.90;;;;;;5093710;28;20903;-76
2023/01/29 08:27:26;;;;;;;17.37;15.47;;;-0.10;99.90;;;;;;5113664;28;20444;-77
2023/01/29 08:29:56;;;;;;;17.93;14.70;;;0.00;99.90;;;;;;5113961;28;20232;-77
2023/01/29 08:32:24;;;;;;;16.97;15.17;;;0.00;99.90;;;;;;5108504;28;20459;-77
2023/01/29 08:34:53;;;;;;;16.73;14.93;;;0.00;99.90;;;;;;5096266;28;20226;-77
2023/01/29 08:37:22;;;;;;;16.70;14.90;;;0.10;99.90;;;;;;5091643;28;20468;-79
2023/01/29 08:39:50;;;;;;;18.37;16.07;;;0.10;99.90;;;;;;5093366;28;20562;-77
2023/01/29 08:42:18;;;;;;;17.97;16.07;;;0.10;99.90;;;;;;5092773;28;20501;-77
2023/01/29 08:44:46;;;;;;;15.73;14.03;;;0.10;99.90;;;;;;5093003;28;20198;-77
2023/01/29 08:47:16;;;;;;;15.17;13.17;;;0.00;99.90;;;;;;5092996;28;20206;-77
2023/01/29 08:49:44;;;;;;;15.17;12.50;;;0.00;99.90;;;;;;5095281;28;20477;-77
2023/01/29 08:52:12;;;;;;;14.53;13.00;;;0.00;99.90;;;;;;5112968;28;20455;-76
2023/01/29 08:54:41;;;;;;;13.13;11.73;;;0.00;99.90;;;;;;5113139;28;20451;-77
2023/01/29 08:57:09;;;;;;;11.87;10.57;;;0.00;99.90;;;;;;5112811;28;20230;-77
2023/01/29 08:59:38;;;;;;;11.60;10.13;;;-0.10;99.90;;;;;;5088178;28;20848;-78
2023/01/29 09:02:06;;;;;;;12.33;10.23;;;-0.10;99.90;;;;;;5092528;28;20453;-77
2023/01/29 09:04:36;;;;;;;12.13;10.10;;;-0.10;99.90;;;;;;5092794;28;20467;-77
2023/01/29 09:07:04;;;;;;;11.03;9.47;;;0.10;99.90;;;;;;5092649;28;20211;-78
2023/01/29 09:09:32;;;;;;;48.47;32.37;;;0.10;99.90;;;;;;5092157;28;20665;-78
2023/01/29 09:12:00;;;;;;;33.87;23.07;;;0.20;99.90;;;;;;5092314;28;20217;-76
2023/01/29 09:14:28;;;;;;;15.97;14.17;;;0.00;99.90;;;;;;5092545;28;20213;-77
2023/01/29 09:16:56;;;;;;;10.27;9.17;;;-0.10;99.90;;;;;;5092131;28;20535;-77
2023/01/29 09:19:25;;;;;;;10.47;9.37;;;0.00;99.90;;;;;;5092820;28;20457;-77
2023/01/29 09:21:54;;;;;;;9.33;8.30;;;0.00;99.90;;;;;;5092130;28;20465;-76
2023/01/29 09:24:22;;;;;;;8.73;7.50;;;0.00;99.90;;;;;;5103197;28;20213;-77
2023/01/29 09:26:57;;;;;;;9.67;8.63;;;0.10;99.90;;;;;;5109373;28;20766;-78
2023/01/29 09:29:26;;;;;;;10.10;8.77;;;0.00;99.90;;;;;;5107179;28;20508;-78
2023/01/29 09:31:54;;;;;;;10.30;8.57;;;0.00;99.90;;;;;;5107373;28;20202;-75
2023/01/29 09:34:22;;;;;;;7.70;6.30;;;0.10;99.90;;;;;;5108366;28;20436;-76
2023/01/29 09:36:52;;;;;;;6.90;5.70;;;0.10;99.90;;;;;;5090750;28;20269;-75
2023/01/29 09:39:21;;;;;;;8.53;6.70;;;0.10;99.90;;;;;;5091595;28;20262;-77
2023/01/29 09:41:56;;;;;;;7.50;6.67;;;0.10;99.90;;;;;;5091955;28;20229;-77
2023/01/29 09:44:33;;;;;;;7.13;6.00;;;0.30;99.90;;;;;;5091759;28;20349;-78
2023/01/29 09:47:06;;;;;;;7.00;5.73;;;0.30;99.90;;;;;;5092594;28;20183;-76
2023/01/29 09:49:38;;;;;;;7.60;6.80;;;0.30;99.90;;;;;;5103484;28;20205;-78
2023/01/29 09:52:13;;;;;;;6.87;5.30;;;0.40;99.90;;;;;;5097921;28;20202;-75
2023/01/29 09:54:51;;;;;;;6.20;5.00;;;0.50;99.90;;;;;;5112620;28;20190;-77
2023/01/29 09:57:25;;;;;;;8.07;6.60;;;0.30;99.90;;;;;;5112845;28;20221;-78
2023/01/29 09:59:55;;;;;;;7.00;5.10;;;0.40;99.90;;;;;;5098658;28;20471;-76
2023/01/29 10:02:43;;;;;;;10.87;9.30;;;0.40;99.90;;;;;;5092594;28;20207;-77
2023/01/29 10:05:26;;;;;;;7.80;6.70;;;0.40;99.90;;;;;;5097595;28;20210;-78
2023/01/29 10:08:14;;;;;;;8.00;6.67;;;0.40;99.90;;;;;;5109230;28;20212;-77
2023/01/29 10:10:50;;;;;;;10.03;8.27;;;0.30;99.90;;;;;;5105128;28;20205;-77
2023/01/29 10:13:28;;;;;;;8.50;7.53;;;0.30;99.90;;;;;;5104821;28;20473;-77
2023/01/29 10:16:11;;;;;;;8.77;7.73;;;0.20;99.90;;;;;;5103346;28;20197;-78
2023/01/29 10:19:02;;;;;;;8.43;7.53;;;0.30;99.90;;;;;;5110315;28;20202;-78
2023/01/29 10:21:47;;;;;;;8.63;7.40;;;0.30;99.90;;;;;;5110787;28;20216;-78
2023/01/29 10:24:25;;;;;;;9.53;7.73;;;0.40;99.90;;;;;;5099753;28;20209;-77
2023/01/29 10:26:56;;;;;;;8.40;7.13;;;0.30;99.90;;;;;;5099408;28;20270;-78
2023/01/29 10:29:25;;;;;;;9.33;7.77;;;0.30;99.90;;;;;;5116291;28;20542;-76
2023/01/29 10:31:58;;;;;;;9.03;7.60;;;0.30;99.90;;;;;;5111431;28;20322;-77
2023/01/29 10:34:31;;;;;;;8.47;7.20;;;0.50;99.90;;;;;;5107288;28;20216;-77
2023/01/29 10:37:00;;;;;;;8.27;6.77;;;0.40;99.90;;;;;;5116159;28;20206;-77
2023/01/29 10:39:31;;;;;;;8.10;7.17;;;0.40;99.90;;;;;;5122433;27;20586;-76
2023/01/29 10:42:18;;;;;;;8.63;7.43;;;0.40;99.90;;;;;;5111538;27;20215;-78
2023/01/29 10:44:59;;;;;;;8.93;7.57;;;0.60;99.90;;;;;;5109827;28;20220;-76
2023/01/29 10:48:06;;;;;;;10.57;7.90;;;0.50;99.90;;;;;;5116910;27;20213;-78
2023/01/29 10:50:47;;;;;;;9.07;7.37;;;0.60;99.90;;;;;;5078185;28;20198;-78
2023/01/29 10:53:28;;;;;;;10.40;8.10;;;0.70;99.90;;;;;;5113572;27;20210;-78
2023/01/29 10:56:04;;;;;;;13.33;10.70;;;0.60;99.90;;;;;;5115305;27;20217;-78
2023/01/29 10:58:51;;;;;;;11.87;9.47;;;0.70;99.90;;;;;;5129221;27;20199;-77
2023/01/29 11:01:20;;;;;;;8.77;7.47;;;0.60;99.90;;;;;;5119300;27;20202;-78
2023/01/29 11:03:56;;;;;;;8.47;6.67;;;0.60;99.90;;;;;;5106918;27;20241;-78
2023/01/29 11:06:30;;;;;;;7.43;6.30;;;0.50;99.90;;;;;;5109277;27;20309;-78
2023/01/29 11:09:07;;;;;;;8.63;7.03;;;0.40;99.90;;;;;;5110826;27;20219;-77
2023/01/29 11:11:41;;;;;;;7.20;6.43;;;1.30;99.90;;;;;;5099362;28;20453;-78
2023/01/29 11:14:16;;;;;;;14.77;11.50;;;2.00;99.90;;;;;;5095798;28;20217;-76
2023/01/29 11:16:46;;;;;;;7.10;5.93;;;1.60;99.90;;;;;;5106065;28;20616;-76
2023/01/29 11:19:16;;;;;;;7.73;6.50;;;1.20;99.90;;;;;;5112048;28;20199;-78
2023/01/29 11:21:52;;;;;;;11.07;9.07;;;1.00;99.90;;;;;;5110784;28;20637;-78
2023/01/29 11:24:20;;;;;;;7.70;6.50;;;0.90;99.90;;;;;;5114444;28;20652;-78
2023/01/29 11:26:51;;;;;;;7.23;6.27;;;0.90;99.90;;;;;;5113162;28;20206;-77
2023/01/29 11:29:37;;;;;;;7.90;5.93;;;0.80;99.90;;;;;;5114517;28;20296;-77
2023/01/29 11:32:07;;;;;;;8.37;6.80;;;0.80;99.90;;;;;;5106549;28;20563;-79
2023/01/29 11:34:35;;;;;;;8.07;7.23;;;0.70;99.90;;;;;;5114354;28;20559;-76
2023/01/29 11:37:15;;;;;;;8.30;7.17;;;0.70;99.90;;;;;;5113550;27;20237;-77
2023/01/29 11:39:45;;;;;;;7.47;6.60;;;0.60;99.90;;;;;;5123873;27;20217;-78
2023/01/29 11:42:20;;;;;;;9.20;7.10;;;0.80;99.90;;;;;;5111500;27;20194;-78
2023/01/29 11:44:50;;;;;;;11.07;7.03;;;0.70;99.90;;;;;;5114179;28;20270;-77
2023/01/29 11:47:22;;;;;;;9.30;7.20;;;0.70;99.90;;;;;;5112472;28;20255;-77
2023/01/29 11:49:53;;;;;;;11.37;7.57;;;0.90;99.90;;;;;;5106869;27;20761;-76
2023/01/29 11:52:24;;;;;;;7.80;6.67;;;1.00;99.90;;;;;;5109603;27;20748;-76
2023/01/29 11:54:57;;;;;;;8.83;6.73;;;1.00;99.90;;;;;;5115683;27;20305;-78
2023/01/29 11:57:32;;;;;;;9.27;6.23;;;1.10;99.90;;;;;;5097240;28;20233;-77
2023/01/29 12:00:06;;;;;;;9.20;6.73;;;1.00;99.90;;;;;;5101626;28;20302;-77
2023/01/29 12:02:37;;;;;;;8.50;7.17;;;1.10;99.90;;;;;;5093339;28;20664;-76
2023/01/29 12:05:14;;;;;;;7.67;6.87;;;1.30;99.90;;;;;;5107580;28;20202;-76
2023/01/29 12:07:44;;;;;;;7.17;6.20;;;1.30;99.90;;;;;;5113329;28;20204;-79
2023/01/29 12:10:31;;;;;;;9.30;6.97;;;1.20;99.90;;;;;;5115314;27;20235;-76
2023/01/29 12:13:17;;;;;;;8.17;6.87;;;1.20;99.90;;;;;;5107389;28;20198;-78
2023/01/29 12:15:48;;;;;;;7.77;6.97;;;1.30;99.90;;;;;;5110647;27;20197;-78
2023/01/29 12:18:24;;;;;;;8.10;6.70;;;1.30;99.90;;;;;;5110659;28;20222;-77
2023/01/29 12:20:56;;;;;;;10.67;8.67;;;1.10;99.90;;;;;;5109788;28;20214;-77
2023/01/29 12:23:33;;;;;;;10.10;7.33;;;1.10;99.90;;;;;;5111390;28;20221;-78
2023/01/29 12:26:05;;;;;;;10.00;8.47;;;1.10;99.90;;;;;;5102944;28;20198;-78
2023/01/29 12:28:50;;;;;;;19.53;16.43;;;1.00;99.90;;;;;;5111050;28;20594;-77
2023/01/29 12:31:28;;;;;;;13.40;12.00;;;1.00;99.90;;;;;;5109717;28;20285;-76
2023/01/29 12:34:05;;;;;;;8.80;7.83;;;0.90;99.90;;;;;;5104334;28;20293;-77
2023/01/29 12:36:38;;;;;;;10.03;7.63;;;0.70;99.90;;;;;;5102765;28;20202;-77
2023/01/29 12:39:10;;;;;;;7.93;7.10;;;0.80;99.90;;;;;;5108193;28;20226;-76
2023/01/29 12:41:43;;;;;;;9.83;7.30;;;0.80;99.90;;;;;;5105563;28;20622;-78
2023/01/29 12:44:17;;;;;;;8.70;7.60;;;0.80;99.90;;;;;;5104822;28;20201;-77
2023/01/29 12:46:52;;;;;;;10.57;8.73;;;0.80;99.90;;;;;;5096438;28;20579;-77
2023/01/29 12:49:24;;;;;;;16.37;14.67;;;0.80;99.90;;;;;;5091714;28;20202;-77
2023/01/29 12:51:59;;;;;;;9.47;7.83;;;0.70;99.90;;;;;;5098536;28;20553;-78
2023/01/29 12:54:35;;;;;;;9.07;7.83;;;0.70;99.90;;;;;;5102042;28;20198;-78
2023/01/29 12:57:09;;;;;;;11.70;9.10;;;0.60;99.90;;;;;;5092388;28;20298;-77
2023/01/29 12:59:42;;;;;;;12.67;9.80;;;0.80;99.90;;;;;;5097366;28;20205;-77
2023/01/29 13:02:27;;;;;;;15.73;12.30;;;0.60;99.90;;;;;;5111151;28;20267;-77
2023/01/29 13:05:01;;;;;;;11.40;8.07;;;0.50;99.90;;;;;;5092500;28;20654;-78
2023/01/29 13:07:34;;;;;;;9.90;7.83;;;0.60;99.90;;;;;;5102721;28;20237;-77
2023/01/29 13:10:10;;;;;;;8.47;7.00;;;0.60;99.90;;;;;;5110225;28;20210;-76
2023/01/29 13:12:53;;;;;;;8.87;7.23;;;0.60;99.90;;;;;;5112591;28;20272;-78
2023/01/29 13:15:30;;;;;;;8.67;7.50;;;0.60;99.90;;;;;;5099185;28;20218;-78
2023/01/29 13:18:16;;;;;;;8.50;7.33;;;0.60;99.90;;;;;;5112294;28;20313;-78
2023/01/29 13:20:48;;;;;;;8.67;7.47;;;0.70;99.90;;;;;;5111759;28;20567;-78
2023/01/29 13:23:20;;;;;;;8.30;7.40;;;0.60;99.90;;;;;;5100697;28;20249;-77